sensor_id;sensor_type;location;lat;lon;timestamp;temperature;humidity
19496;DHT22;9888;48.606;9.630;2023-08-06T00:02:25;12.50;99.90
19496;DHT22;9888;48.606;9.630;2023-08-06T00:04:52;12.50;99.90
19496;DHT22;9888;48.606;9.630;2023-08-06T00:07:19;12.50;99.90
19496;DHT22;9888;48.606;9.630;2023-08-06T00:09:46;12.50;99.90
19496;DHT22;9888;48.606;9.630;2023-08-06T00:12:13;12.50;99.90
19496;DHT22;9888;48.606;9.630;2023-08-06T00:14:40;12.50;99.90
19496;DHT22;9888;48.606;9.630;2023-08-06T00:17:07;12.50;99.90
19496;DHT22;9888;48.606;9.630;2023-08-06T00:19:34;12.50;99.90
19496;DHT22;9888;48.606;9.630;2023-08-06T00:22:02;12.50;99.90
19496;DHT22;9888;48.606;9.630;2023-08-06T00:24:29;12.50;99.90
19496;DHT22;9888;48.606;9.630;2023-08-06T00:26:56;12.60;99.90
19496;DHT22;9888;48.606;9.630;2023-08-06T00:29:23;12.60;99.90
19496;DHT22;9888;48.606;9.630;2023-08-06T00:31:50;12.60;99.90
19496;DHT22;9888;48.606;9.630;2023-08-06T00:34:18;12.60;99.90
19496;DHT22;9888;48.606;9.630;2023-08-06T00:36:45;12.50;99.90
19496;DHT22;9888;48.606;9.630;2023-08-06T00:39:13;12.50;99.90
19496;DHT22;9888;48.606;9.630;2023-08-06T00:41:40;12.50;99.90
19496;DHT22;9888;48.606;9.630;2023-08-06T00:44:07;12.40;99.90
19496;DHT22;9888;48.606;9.630;2023-08-06T00:46:34;12.30;99.90
19496;DHT22;9888;48.606;9.630;2023-08-06T00:49:02;12.20;99.90
19496;DHT22;9888;48.606;9.630;2023-08-06T00:51:29;12.10;99.90
19496;DHT22;9888;48.606;9.630;2023-08-06T00:53:57;12.00;99.90
19496;DHT22;9888;48.606;9.630;2023-08-06T00:56:25;12.00;99.90
19496;DHT22;9888;48.606;9.630;2023-08-06T00:58:52;11.90;99.90
19496;DHT22;9888;48.606;9.630;2023-08-06T01:01:21;11.70;99.90
19496;DHT22;9888;48.606;9.630;2023-08-06T01:03:50;11.70;99.90
19496;DHT22;9888;48.606;9.630;2023-08-06T01:06:22;11.60;99.90
19496;DHT22;9888;48.606;9.630;2023-08-06T01:08:58;11.50;99.90
19496;DHT22;9888;48.606;9.630;2023-08-06T01:11:44;11.40;99.90
19496;DHT22;9888;48.606;9.630;2023-08-06T01:14:47;11.40;99.90
19496;DHT22;9888;48.606;9.630;2023-08-06T01:17:16;11.40;99.90
19496;DHT22;9888;48.606;9.630;2023-08-06T01:19:43;11.40;99.90
19496;DHT22;9888;48.606;9.630;2023-08-06T01:22:11;11.40;99.90
19496;DHT22;9888;48.606;9.630;2023-08-06T01:24:38;11.30;99.90
19496;DHT22;9888;48.606;9.630;2023-08-06T01:27:11;11.30;99.90
19496;DHT22;9888;48.606;9.630;2023-08-06T01:32:42;11.00;99.90
19496;DHT22;9888;48.606;9.630;2023-08-06T01:35:11;11.00;99.90
19496;DHT22;9888;48.606;9.630;2023-08-06T01:37:39;10.90;99.90
19496;DHT22;9888;48.606;9.630;2023-08-06T01:40:10;10.80;99.90
19496;DHT22;9888;48.606;9.630;2023-08-06T01:42:41;10.70;99.90
19496;DHT22;9888;48.606;9.630;2023-08-06T01:45:11;10.80;99.90
19496;DHT22;9888;48.606;9.630;2023-08-06T01:47:57;10.80;99.90
19496;DHT22;9888;48.606;9.630;2023-08-06T01:50:24;10.90;99.90
19496;DHT22;9888;48.606;9.630;2023-08-06T01:52:55;11.00;99.90
19496;DHT22;9888;48.606;9.630;2023-08-06T01:55:23;11.10;99.90
19496;DHT22;9888;48.606;9.630;2023-08-06T01:57:57;11.10;99.90
19496;DHT22;9888;48.606;9.630;2023-08-06T02:00:26;11.20;99.90
19496;DHT22;9888;48.606;9.630;2023-08-06T02:02:55;11.20;99.90
19496;DHT22;9888;48.606;9.630;2023-08-06T02:05:26;11.10;99.90
19496;DHT22;9888;48.606;9.630;2023-08-06T02:07:54;11.10;99.90
19496;DHT22;9888;48.606;9.630;2023-08-06T02:10:24;11.00;99.90
19496;DHT22;9888;48.606;9.630;2023-08-06T02:12:54;11.00;99.90
19496;DHT22;9888;48.606;9.630;2023-08-06T02:15:26;10.90;99.90
19496;DHT22;9888;48.606;9.630;2023-08-06T02:21:19;10.80;99.90
19496;DHT22;9888;48.606;9.630;2023-08-06T02:23:47;10.70;99.90
19496;DHT22;9888;48.606;9.630;2023-08-06T02:26:18;10.70;99.90
19496;DHT22;9888;48.606;9.630;2023-08-06T02:28:47;10.70;99.90
19496;DHT22;9888;48.606;9.630;2023-08-06T02:31:14;10.60;99.90
19496;DHT22;9888;48.606;9.630;2023-08-06T02:33:45;10.50;99.90
19496;DHT22;9888;48.606;9.630;2023-08-06T02:36:13;10.50;99.90
19496;DHT22;9888;48.606;9.630;2023-08-06T02:38:44;10.40;99.90
19496;DHT22;9888;48.606;9.630;2023-08-06T02:41:13;10.40;99.90
19496;DHT22;9888;48.606;9.630;2023-08-06T02:43:40;10.30;99.90
19496;DHT22;9888;48.606;9.630;2023-08-06T02:46:15;10.30;99.90
19496;DHT22;9888;48.606;9.630;2023-08-06T02:48:45;10.20;99.90
19496;DHT22;9888;48.606;9.630;2023-08-06T02:51:22;10.20;99.90
19496;DHT22;9888;48.606;9.630;2023-08-06T02:53:49;10.10;99.90
19496;DHT22;9888;48.606;9.630;2023-08-06T02:56:21;10.10;99.90
19496;DHT22;9888;48.606;9.630;2023-08-06T02:58:51;10.00;99.90
19496;DHT22;9888;48.606;9.630;2023-08-06T03:01:19;10.00;99.90
19496;DHT22;9888;48.606;9.630;2023-08-06T03:03:46;9.90;99.90
19496;DHT22;9888;48.606;9.630;2023-08-06T03:06:15;9.80;99.90
19496;DHT22;9888;48.606;9.630;2023-08-06T03:08:42;9.70;99.90
19496;DHT22;9888;48.606;9.630;2023-08-06T03:11:10;9.70;99.90
19496;DHT22;9888;48.606;9.630;2023-08-06T03:13:40;9.70;99.90
19496;DHT22;9888;48.606;9.630;2023-08-06T03:16:08;9.60;99.90
19496;DHT22;9888;48.606;9.630;2023-08-06T03:18:35;9.60;99.90
19496;DHT22;9888;48.606;9.630;2023-08-06T03:21:05;9.60;99.90
19496;DHT22;9888;48.606;9.630;2023-08-06T03:23:32;9.50;99.90
19496;DHT22;9888;48.606;9.630;2023-08-06T03:26:03;9.50;99.90
19496;DHT22;9888;48.606;9.630;2023-08-06T03:28:31;9.50;99.90
19496;DHT22;9888;48.606;9.630;2023-08-06T03:31:04;9.40;99.90
19496;DHT22;9888;48.606;9.630;2023-08-06T03:33:32;9.40;99.90
19496;DHT22;9888;48.606;9.630;2023-08-06T03:36:00;9.50;99.90
19496;DHT22;9888;48.606;9.630;2023-08-06T03:38:33;9.50;99.90
19496;DHT22;9888;48.606;9.630;2023-08-06T03:44:31;9.40;99.90
19496;DHT22;9888;48.606;9.630;2023-08-06T03:47:02;9.50;99.90
19496;DHT22;9888;48.606;9.630;2023-08-06T03:49:31;9.50;99.90
19496;DHT22;9888;48.606;9.630;2023-08-06T03:51:58;9.60;99.90
19496;DHT22;9888;48.606;9.630;2023-08-06T03:54:26;9.70;99.90
19496;DHT22;9888;48.606;9.630;2023-08-06T03:56:54;9.70;99.90
19496;DHT22;9888;48.606;9.630;2023-08-06T03:59:22;9.80;99.90
19496;DHT22;9888;48.606;9.630;2023-08-06T04:01:59;9.90;99.90
19496;DHT22;9888;48.606;9.630;2023-08-06T04:04:28;10.00;99.90
19496;DHT22;9888;48.606;9.630;2023-08-06T04:10:27;10.20;99.90
19496;DHT22;9888;48.606;9.630;2023-08-06T04:12:57;10.20;99.90
19496;DHT22;9888;48.606;9.630;2023-08-06T04:15:26;10.30;99.90
19496;DHT22;9888;48.606;9.630;2023-08-06T04:17:53;10.40;99.90
19496;DHT22;9888;48.606;9.630;2023-08-06T04:20:24;10.40;99.90
19496;DHT22;9888;48.606;9.630;2023-08-06T04:22:54;10.60;99.90
19496;DHT22;9888;48.606;9.630;2023-08-06T04:25:23;10.60;99.90
19496;DHT22;9888;48.606;9.630;2023-08-06T04:27:54;10.80;99.90
19496;DHT22;9888;48.606;9.630;2023-08-06T04:30:21;10.80;99.90
19496;DHT22;9888;48.606;9.630;2023-08-06T04:32:58;10.90;99.90
19496;DHT22;9888;48.606;9.630;2023-08-06T04:35:25;10.90;99.90
19496;DHT22;9888;48.606;9.630;2023-08-06T04:38:02;11.00;99.90
19496;DHT22;9888;48.606;9.630;2023-08-06T04:40:32;11.00;99.90
19496;DHT22;9888;48.606;9.630;2023-08-06T04:43:03;11.10;99.90
19496;DHT22;9888;48.606;9.630;2023-08-06T04:45:31;11.20;99.90
19496;DHT22;9888;48.606;9.630;2023-08-06T04:47:59;11.20;99.90
19496;DHT22;9888;48.606;9.630;2023-08-06T04:50:31;11.20;99.90
19496;DHT22;9888;48.606;9.630;2023-08-06T04:52:58;11.30;99.90
19496;DHT22;9888;48.606;9.630;2023-08-06T04:55:25;11.30;99.90
19496;DHT22;9888;48.606;9.630;2023-08-06T04:57:52;11.30;99.90
19496;DHT22;9888;48.606;9.630;2023-08-06T05:00:22;11.40;99.90
19496;DHT22;9888;48.606;9.630;2023-08-06T05:02:51;11.40;99.90
19496;DHT22;9888;48.606;9.630;2023-08-06T05:05:19;11.40;99.90
19496;DHT22;9888;48.606;9.630;2023-08-06T05:07:49;11.50;99.90
19496;DHT22;9888;48.606;9.630;2023-08-06T05:10:17;11.50;99.90
19496;DHT22;9888;48.606;9.630;2023-08-06T05:13:10;11.60;99.90
19496;DHT22;9888;48.606;9.630;2023-08-06T05:15:53;11.70;99.90
19496;DHT22;9888;48.606;9.630;2023-08-06T05:18:24;11.70;99.90
19496;DHT22;9888;48.606;9.630;2023-08-06T05:24:15;11.70;99.90
19496;DHT22;9888;48.606;9.630;2023-08-06T05:26:42;11.60;99.90
19496;DHT22;9888;48.606;9.630;2023-08-06T05:29:15;11.60;99.90
19496;DHT22;9888;48.606;9.630;2023-08-06T05:31:42;11.60;99.90
19496;DHT22;9888;48.606;9.630;2023-08-06T05:34:11;11.60;99.90
19496;DHT22;9888;48.606;9.630;2023-08-06T05:36:40;11.70;99.90
19496;DHT22;9888;48.606;9.630;2023-08-06T05:39:09;11.90;99.90
19496;DHT22;9888;48.606;9.630;2023-08-06T05:41:38;11.90;99.90
19496;DHT22;9888;48.606;9.630;2023-08-06T05:47:27;12.00;99.90
19496;DHT22;9888;48.606;9.630;2023-08-06T05:49:55;12.00;99.90
19496;DHT22;9888;48.606;9.630;2023-08-06T05:52:23;12.10;99.90
19496;DHT22;9888;48.606;9.630;2023-08-06T05:58:19;12.50;99.90
19496;DHT22;9888;48.606;9.630;2023-08-06T06:00:58;13.00;99.90
19496;DHT22;9888;48.606;9.630;2023-08-06T06:03:25;13.10;99.90
19496;DHT22;9888;48.606;9.630;2023-08-06T06:05:52;13.20;99.90
19496;DHT22;9888;48.606;9.630;2023-08-06T06:08:19;13.30;99.90
19496;DHT22;9888;48.606;9.630;2023-08-06T06:10:46;13.40;99.90
19496;DHT22;9888;48.606;9.630;2023-08-06T06:13:13;13.60;99.90
19496;DHT22;9888;48.606;9.630;2023-08-06T06:15:41;13.80;99.90
19496;DHT22;9888;48.606;9.630;2023-08-06T06:21:16;14.00;99.90
19496;DHT22;9888;48.606;9.630;2023-08-06T06:27:06;13.80;99.90
19496;DHT22;9888;48.606;9.630;2023-08-06T06:29:33;13.50;99.90
19496;DHT22;9888;48.606;9.630;2023-08-06T06:32:01;13.40;99.90
19496;DHT22;9888;48.606;9.630;2023-08-06T06:34:30;13.30;99.90
19496;DHT22;9888;48.606;9.630;2023-08-06T06:36:58;13.20;99.90
19496;DHT22;9888;48.606;9.630;2023-08-06T06:39:25;13.20;99.90
19496;DHT22;9888;48.606;9.630;2023-08-06T06:41:56;13.10;99.90
19496;DHT22;9888;48.606;9.630;2023-08-06T06:44:25;12.90;99.90
19496;DHT22;9888;48.606;9.630;2023-08-06T06:46:53;13.00;99.90
19496;DHT22;9888;48.606;9.630;2023-08-06T06:49:20;12.90;99.90
19496;DHT22;9888;48.606;9.630;2023-08-06T06:51:48;13.00;99.90
19496;DHT22;9888;48.606;9.630;2023-08-06T06:54:18;13.00;99.90
19496;DHT22;9888;48.606;9.630;2023-08-06T06:56:47;13.10;99.90
19496;DHT22;9888;48.606;9.630;2023-08-06T06:59:14;13.30;99.90
19496;DHT22;9888;48.606;9.630;2023-08-06T07:01:43;13.30;99.90
19496;DHT22;9888;48.606;9.630;2023-08-06T07:04:11;13.40;99.90
19496;DHT22;9888;48.606;9.630;2023-08-06T07:07:08;13.40;99.90
19496;DHT22;9888;48.606;9.630;2023-08-06T07:09:37;13.20;99.90
19496;DHT22;9888;48.606;9.630;2023-08-06T07:12:10;13.00;99.90
19496;DHT22;9888;48.606;9.630;2023-08-06T07:14:39;13.00;99.90
19496;DHT22;9888;48.606;9.630;2023-08-06T07:17:07;13.00;99.90
19496;DHT22;9888;48.606;9.630;2023-08-06T07:19:35;13.40;99.90
19496;DHT22;9888;48.606;9.630;2023-08-06T07:22:03;13.80;99.90
19496;DHT22;9888;48.606;9.630;2023-08-06T07:24:31;14.00;99.90
19496;DHT22;9888;48.606;9.630;2023-08-06T07:26:59;13.90;99.90
19496;DHT22;9888;48.606;9.630;2023-08-06T07:29:30;13.70;99.90
19496;DHT22;9888;48.606;9.630;2023-08-06T07:32:10;13.60;99.90
19496;DHT22;9888;48.606;9.630;2023-08-06T07:34:40;13.40;99.90
19496;DHT22;9888;48.606;9.630;2023-08-06T07:37:11;13.20;99.90
19496;DHT22;9888;48.606;9.630;2023-08-06T07:43:07;13.30;99.90
19496;DHT22;9888;48.606;9.630;2023-08-06T07:45:36;13.30;99.90
19496;DHT22;9888;48.606;9.630;2023-08-06T07:48:06;13.40;99.90
19496;DHT22;9888;48.606;9.630;2023-08-06T07:50:34;13.40;99.90
19496;DHT22;9888;48.606;9.630;2023-08-06T07:53:05;13.40;99.90
19496;DHT22;9888;48.606;9.630;2023-08-06T07:55:33;13.10;99.90
19496;DHT22;9888;48.606;9.630;2023-08-06T07:58:01;13.00;99.90
19496;DHT22;9888;48.606;9.630;2023-08-06T08:00:28;12.90;99.90
19496;DHT22;9888;48.606;9.630;2023-08-06T08:02:57;12.80;99.90
19496;DHT22;9888;48.606;9.630;2023-08-06T08:05:26;12.60;99.90
19496;DHT22;9888;48.606;9.630;2023-08-06T08:07:54;12.40;99.90
19496;DHT22;9888;48.606;9.630;2023-08-06T08:10:24;12.30;99.90
19496;DHT22;9888;48.606;9.630;2023-08-06T08:12:52;12.30;99.90
19496;DHT22;9888;48.606;9.630;2023-08-06T08:18:26;12.40;99.90
19496;DHT22;9888;48.606;9.630;2023-08-06T08:20:57;12.30;99.90
19496;DHT22;9888;48.606;9.630;2023-08-06T08:23:25;12.30;99.90
19496;DHT22;9888;48.606;9.630;2023-08-06T08:25:56;12.40;99.90
19496;DHT22;9888;48.606;9.630;2023-08-06T21:54:22;9.60;99.90
19496;DHT22;9888;48.606;9.630;2023-08-06T22:12:21;9.40;99.90
19496;DHT22;9888;48.606;9.630;2023-08-06T22:14:59;9.40;99.90
19496;DHT22;9888;48.606;9.630;2023-08-06T22:17:27;9.40;99.90
19496;DHT22;9888;48.606;9.630;2023-08-06T22:19:54;9.40;99.90
19496;DHT22;9888;48.606;9.630;2023-08-06T22:22:23;9.40;99.90
19496;DHT22;9888;48.606;9.630;2023-08-06T22:24:51;9.40;99.90
19496;DHT22;9888;48.606;9.630;2023-08-06T22:27:20;9.40;99.90
19496;DHT22;9888;48.606;9.630;2023-08-06T22:29:47;9.40;99.90
19496;DHT22;9888;48.606;9.630;2023-08-06T22:32:16;9.40;99.90
19496;DHT22;9888;48.606;9.630;2023-08-06T22:34:45;9.40;99.90
19496;DHT22;9888;48.606;9.630;2023-08-06T22:37:13;9.40;99.90
19496;DHT22;9888;48.606;9.630;2023-08-06T22:39:41;9.40;99.90
19496;DHT22;9888;48.606;9.630;2023-08-06T22:42:08;9.40;99.90
19496;DHT22;9888;48.606;9.630;2023-08-06T22:44:35;9.40;99.90
19496;DHT22;9888;48.606;9.630;2023-08-06T22:47:04;9.40;99.90
19496;DHT22;9888;48.606;9.630;2023-08-06T22:49:36;9.40;99.90
19496;DHT22;9888;48.606;9.630;2023-08-06T22:52:06;9.40;99.90
19496;DHT22;9888;48.606;9.630;2023-08-06T22:58:01;9.40;99.90
19496;DHT22;9888;48.606;9.630;2023-08-06T23:00:29;9.40;99.90
19496;DHT22;9888;48.606;9.630;2023-08-06T23:02:58;9.40;99.90
19496;DHT22;9888;48.606;9.630;2023-08-06T23:05:26;9.40;99.90
19496;DHT22;9888;48.606;9.630;2023-08-06T23:07:56;9.40;99.90
19496;DHT22;9888;48.606;9.630;2023-08-06T23:10:26;9.40;99.90
19496;DHT22;9888;48.606;9.630;2023-08-06T23:12:55;9.40;99.90
19496;DHT22;9888;48.606;9.630;2023-08-06T23:15:23;9.40;99.90
19496;DHT22;9888;48.606;9.630;2023-08-06T23:17:51;9.30;99.90
19496;DHT22;9888;48.606;9.630;2023-08-06T23:20:19;9.40;99.90
19496;DHT22;9888;48.606;9.630;2023-08-06T23:22:47;9.30;99.90
19496;DHT22;9888;48.606;9.630;2023-08-06T23:25:15;9.40;99.90
19496;DHT22;9888;48.606;9.630;2023-08-06T23:27:56;9.30;99.90
19496;DHT22;9888;48.606;9.630;2023-08-06T23:30:25;9.30;99.90
19496;DHT22;9888;48.606;9.630;2023-08-06T23:32:54;9.30;99.90
19496;DHT22;9888;48.606;9.630;2023-08-06T23:35:22;9.30;99.90
19496;DHT22;9888;48.606;9.630;2023-08-06T23:37:50;9.30;99.90
19496;DHT22;9888;48.606;9.630;2023-08-06T23:40:18;9.40;99.90
19496;DHT22;9888;48.606;9.630;2023-08-06T23:42:47;9.30;99.90
19496;DHT22;9888;48.606;9.630;2023-08-06T23:45:15;9.30;99.90
19496;DHT22;9888;48.606;9.630;2023-08-06T23:47:43;9.30;99.90
19496;DHT22;9888;48.606;9.630;2023-08-06T23:50:10;9.30;99.90
19496;DHT22;9888;48.606;9.630;2023-08-06T23:52:37;9.30;99.90
19496;DHT22;9888;48.606;9.630;2023-08-06T23:55:05;9.30;99.90
19496;DHT22;9888;48.606;9.630;2023-08-06T23:57:35;9.30;99.90
